createdAt,value
2023-01-13T00:00:51.533Z,100253.69
2023-01-13T00:03:18.464Z,100260.56
2023-01-13T00:05:45.028Z,100246.88
2023-01-13T00:08:11.533Z,100247.00
2023-01-13T00:10:38.051Z,100258.91
2023-01-13T00:13:05.900Z,100260.56
2023-01-13T00:15:33.861Z,100253.72
2023-01-13T00:18:00.919Z,100263.16
2023-01-13T00:20:27.923Z,100256.25
2023-01-13T00:22:55.590Z,100253.72
2023-01-13T00:25:22.147Z,100248.53
2023-01-13T00:27:49.107Z,100235.69
2023-01-13T00:30:16.418Z,100243.34
2023-01-13T00:32:42.995Z,100231.31
2023-01-13T00:35:09.606Z,100237.28
2023-01-13T00:37:37.953Z,100235.50
2023-01-13T00:40:06.019Z,100231.97
2023-01-13T00:42:51.269Z,100229.41
2023-01-13T00:45:18.252Z,100226.84
2023-01-13T00:47:44.817Z,100220.84
2023-01-13T00:50:11.387Z,100223.34
2023-01-13T00:52:39.597Z,100221.63
2023-01-13T00:55:08.083Z,100218.09
2023-01-13T00:57:34.909Z,100221.56
2023-01-13T01:00:02.505Z,100218.06
2023-01-13T01:02:29.054Z,100224.03
2023-01-13T01:04:55.601Z,100212.94
2023-01-13T01:07:22.689Z,100216.41
2023-01-13T01:09:50.331Z,100217.25
2023-01-13T01:12:17.426Z,100216.38
2023-01-13T01:14:44.538Z,100202.69
2023-01-13T01:17:11.051Z,100209.44
2023-01-13T01:19:38.766Z,100208.56
2023-01-13T01:22:05.486Z,100221.44
2023-01-13T01:24:32.042Z,100224.03
2023-01-13T01:26:59.127Z,100207.75
2023-01-13T01:29:26.160Z,100218.97
2023-01-13T01:31:53.160Z,100217.50
2023-01-13T01:34:20.148Z,100226.09
2023-01-13T01:36:47.612Z,100234.63
2023-01-13T01:39:14.126Z,100231.28
2023-01-13T01:42:00.648Z,100238.97
2023-01-13T01:44:42.174Z,100237.44
2023-01-13T01:47:18.072Z,100210.06
2023-01-13T01:49:46.067Z,100222.13
2023-01-13T01:52:40.300Z,100210.06
2023-01-13T01:55:13.648Z,100202.31
2023-01-13T01:57:49.778Z,100203.25
2023-01-13T02:00:16.624Z,100200.63
2023-01-13T02:02:46.328Z,100192.09
2023-01-13T02:05:13.939Z,100186.19
2023-01-13T02:07:43.204Z,100177.69
2023-01-13T02:10:14.654Z,100168.22
2023-01-13T02:12:45.459Z,100188.72
2023-01-13T02:15:18.410Z,100192.09
2023-01-13T02:17:54.229Z,100201.50
2023-01-13T02:20:54.875Z,100192.09
2023-01-13T02:24:13.535Z,100198.97
2023-01-13T02:27:22.852Z,100189.56
2023-01-13T02:30:26.919Z,100188.72
2023-01-13T02:33:06.199Z,100182.75
2023-01-13T02:35:52.996Z,100179.31
2023-01-13T02:38:26.332Z,100169.06
2023-01-13T02:41:27.361Z,100166.44
2023-01-13T02:44:10.508Z,100146.72
2023-01-13T02:47:06.273Z,100143.38
2023-01-13T02:49:41.564Z,100158.84
2023-01-13T02:52:28.548Z,100140.81
2023-01-13T02:55:00.365Z,100151.13
2023-01-13T02:57:31.600Z,100104.66
2023-01-13T02:59:58.674Z,100122.69
2023-01-13T03:02:26.439Z,100158.78
2023-01-13T03:04:59.223Z,100143.31
2023-01-13T03:07:35.335Z,100164.78
2023-01-13T03:10:11.754Z,100154.47
2023-01-13T03:13:12.660Z,100169.03
2023-01-13T03:15:54.104Z,100149.25
2023-01-13T03:18:23.765Z,100158.72
2023-01-13T03:21:04.040Z,100140.84
2023-01-13T03:23:37.663Z,100158.84
2023-01-13T03:26:41.569Z,100145.16
2023-01-13T03:29:18.018Z,100137.38
2023-01-13T03:32:00.231Z,100114.22
2023-01-13T03:34:46.689Z,100126.22
2023-01-13T03:37:18.071Z,100121.06
2023-01-13T03:39:55.902Z,100086.63
2023-01-13T03:42:26.432Z,100118.53
2023-01-13T03:45:00.638Z,100129.69
2023-01-13T03:47:55.537Z,100142.56
2023-01-13T03:50:33.114Z,100111.63
2023-01-13T03:53:09.318Z,100142.56
2023-01-13T03:55:40.173Z,100134.06
2023-01-13T03:58:15.372Z,100137.44
2023-01-13T04:00:50.847Z,100139.03
2023-01-13T04:03:30.277Z,100146.75
2023-01-13T04:06:05.057Z,100138.19
2023-01-13T04:08:35.316Z,100126.16
2023-01-13T04:11:18.640Z,100129.59
2023-01-13T04:13:49.178Z,100140.69
2023-01-13T04:16:16.182Z,100120.09
2023-01-13T04:18:42.775Z,100137.25
2023-01-13T04:21:09.879Z,100146.59
2023-01-13T04:23:37.065Z,100143.25
2023-01-13T04:26:04.179Z,100148.31
2023-01-13T04:28:31.285Z,100139.81
2023-01-13T04:30:57.883Z,100149.28
2023-01-13T04:33:25.048Z,100152.69
2023-01-13T04:35:52.734Z,100120.91
2023-01-13T04:38:21.042Z,100117.34
2023-01-13T04:40:48.504Z,100144.91
2023-01-13T04:43:16.034Z,100143.19
2023-01-13T04:45:43.381Z,100121.69
2023-01-13T04:48:10.556Z,100146.69
2023-01-13T04:50:37.741Z,100119.25
2023-01-13T04:53:04.823Z,100133.88
2023-01-13T04:55:32.120Z,100138.13
2023-01-13T04:58:07.164Z,100139.81
2023-01-13T05:00:34.250Z,100139.88
2023-01-13T05:03:01.577Z,100114.97
2023-01-13T05:05:29.778Z,100131.22
2023-01-13T05:07:57.981Z,100121.75
2023-01-13T05:10:25.135Z,100127.78
2023-01-13T05:13:10.195Z,100115.75
2023-01-13T05:15:55.440Z,100114.00
2023-01-13T05:18:22.783Z,100125.19
2023-01-13T05:20:50.454Z,100125.25
2023-01-13T05:23:36.645Z,100120.94
2023-01-13T05:26:04.687Z,100110.66
2023-01-13T05:28:33.184Z,100125.25
2023-01-13T05:31:00.257Z,100119.16
2023-01-13T05:33:26.952Z,100114.78
2023-01-13T05:35:53.477Z,100094.97
2023-01-13T05:38:20.509Z,100111.41
2023-01-13T05:41:05.587Z,100096.78
2023-01-13T05:43:33.172Z,100143.19
2023-01-13T05:46:02.934Z,100121.78
2023-01-13T05:48:37.054Z,100136.44
2023-01-13T05:51:05.684Z,100121.00
2023-01-13T05:53:32.435Z,100113.38
2023-01-13T05:55:59.735Z,100141.63
2023-01-13T05:58:28.453Z,100134.78
2023-01-13T06:01:01.312Z,100136.47
2023-01-13T06:03:28.428Z,100116.69
2023-01-13T06:06:01.480Z,100142.44
2023-01-13T06:08:28.538Z,100149.41
2023-01-13T06:10:55.067Z,100149.38
2023-01-13T06:13:22.256Z,100149.34
2023-01-13T06:15:49.000Z,100154.50
2023-01-13T06:18:15.835Z,100148.56
2023-01-13T06:20:42.883Z,100131.34
2023-01-13T06:23:11.796Z,100164.03
2023-01-13T06:26:04.916Z,100152.13
2023-01-13T06:28:33.289Z,100141.78
2023-01-13T06:31:06.164Z,100146.88
2023-01-13T06:33:55.296Z,100137.41
2023-01-13T06:36:30.980Z,100152.81
2023-01-13T06:39:01.390Z,100170.84
2023-01-13T06:41:48.696Z,100110.63
2023-01-13T06:44:15.316Z,100175.19
2023-01-13T06:46:41.916Z,100172.56
2023-01-13T06:49:09.479Z,100165.75
2023-01-13T06:51:36.560Z,100162.22
2023-01-13T06:54:03.621Z,100126.16
2023-01-13T06:56:30.191Z,100173.50
2023-01-13T06:58:56.763Z,100163.19
2023-01-13T07:01:23.506Z,100174.31
2023-01-13T07:03:50.130Z,100154.59
2023-01-13T07:06:16.628Z,100135.69
2023-01-13T07:08:43.127Z,100161.47
2023-01-13T07:11:09.709Z,100163.19
2023-01-13T07:13:54.896Z,100168.38
2023-01-13T07:16:21.601Z,100172.63
2023-01-13T07:18:48.137Z,100181.31
2023-01-13T07:21:18.802Z,100169.13
2023-01-13T07:23:45.821Z,100147.66
2023-01-13T07:26:12.433Z,100118.34
2023-01-13T07:28:39.996Z,100152.72
2023-01-13T07:31:14.529Z,100194.78
2023-01-13T07:33:41.172Z,100178.44
2023-01-13T07:36:08.385Z,100184.50
2023-01-13T07:38:35.097Z,100154.41
2023-01-13T07:41:22.012Z,100185.25
2023-01-13T07:43:48.596Z,100168.81
2023-01-13T07:46:15.967Z,100180.00
2023-01-13T07:48:42.592Z,100186.00
2023-01-13T07:51:11.786Z,100202.28
2023-01-13T07:53:39.074Z,100177.38
2023-01-13T07:56:07.166Z,100218.50
2023-01-13T07:58:35.375Z,100199.63
2023-01-13T08:01:12.377Z,100215.13
2023-01-13T08:03:40.410Z,100219.34
2023-01-13T08:06:07.443Z,100206.47
2023-01-13T08:08:34.864Z,100203.88
2023-01-13T08:11:06.397Z,100215.81
2023-01-13T08:13:33.317Z,100207.22
2023-01-13T08:16:03.359Z,100236.44
2023-01-13T08:18:32.077Z,100230.41
2023-01-13T08:21:02.792Z,100243.28
2023-01-13T08:23:29.462Z,100239.88
2023-01-13T08:26:10.552Z,100224.38
2023-01-13T08:28:37.639Z,100253.59
2023-01-13T08:31:06.224Z,100213.16
2023-01-13T08:33:34.043Z,100189.16
2023-01-13T08:36:06.711Z,100237.41
2023-01-13T08:38:34.789Z,100243.38
2023-01-13T08:41:02.865Z,100227.03
2023-01-13T08:43:29.921Z,100225.47
2023-01-13T08:45:59.223Z,100210.78
2023-01-13T08:48:26.744Z,100225.47
2023-01-13T08:50:53.440Z,100225.38
2023-01-13T08:53:21.029Z,100241.00
2023-01-13T08:55:47.619Z,100236.63
2023-01-13T08:58:16.303Z,100234.03
2023-01-13T09:00:43.552Z,100246.91
2023-01-13T09:03:10.136Z,100226.28
2023-01-13T09:05:37.418Z,100258.16
2023-01-13T09:08:04.558Z,100259.81
2023-01-13T09:10:31.852Z,100272.75
2023-01-13T09:13:13.982Z,100229.75
2023-01-13T09:15:50.158Z,100246.22
2023-01-13T09:18:16.763Z,100251.34
2023-01-13T09:20:44.565Z,100265.91
2023-01-13T09:23:11.600Z,100281.44
2023-01-13T09:25:38.936Z,100285.72
2023-01-13T09:28:05.964Z,100215.25
2023-01-13T09:30:32.536Z,100281.50
2023-01-13T09:33:18.544Z,100282.44
2023-01-13T09:35:45.885Z,100300.38
2023-01-13T09:38:12.465Z,100303.78
2023-01-13T09:40:41.470Z,100292.75
2023-01-13T09:43:53.796Z,100303.16
2023-01-13T09:46:43.153Z,100295.38
2023-01-13T09:49:20.737Z,100291.03
2023-01-13T09:51:55.515Z,100309.94
2023-01-13T09:54:28.484Z,100327.09
2023-01-13T09:56:55.481Z,100311.63
2023-01-13T09:59:22.525Z,100314.97
2023-01-13T10:02:04.042Z,100316.75
2023-01-13T10:04:31.268Z,100309.06
2023-01-13T10:07:03.788Z,100299.63
2023-01-13T10:09:34.502Z,100337.41
2023-01-13T10:12:20.925Z,100297.94
2023-01-13T10:14:57.563Z,100341.69
2023-01-13T10:17:43.837Z,100340.84
2023-01-13T10:20:27.255Z,100354.56
2023-01-13T10:23:47.948Z,100337.41
2023-01-13T10:26:26.909Z,100350.38
2023-01-13T10:28:55.750Z,100360.63
2023-01-13T10:31:23.900Z,100349.47
2023-01-13T10:34:01.932Z,100327.97
2023-01-13T10:36:29.046Z,100332.28
2023-01-13T10:39:08.245Z,100275.38
2023-01-13T10:41:36.224Z,100307.31
2023-01-13T10:44:16.437Z,100366.75
2023-01-13T10:46:55.583Z,100356.47
2023-01-13T10:49:29.233Z,100351.31
2023-01-13T10:51:55.798Z,100348.72
2023-01-13T10:54:25.544Z,100341.78
2023-01-13T10:57:18.316Z,100376.25
2023-01-13T10:59:45.555Z,100382.16
2023-01-13T11:02:29.604Z,100389.97
2023-01-13T11:04:56.762Z,100389.13
2023-01-13T11:07:49.481Z,100401.13
2023-01-13T11:10:23.269Z,100388.25
2023-01-13T11:13:02.166Z,100392.59
2023-01-13T11:15:53.922Z,100402.00
2023-01-13T11:18:31.122Z,100409.66
2023-01-13T11:21:00.726Z,100394.25
2023-01-13T11:23:35.777Z,100383.91
2023-01-13T11:26:06.750Z,100421.72
2023-01-13T11:28:50.422Z,100415.75
2023-01-13T11:31:54.272Z,100422.63
2023-01-13T11:34:27.248Z,100429.53
2023-01-13T11:36:57.314Z,100415.00
2023-01-13T11:39:29.950Z,100433.03
2023-01-13T11:42:20.575Z,100432.19
2023-01-13T11:45:01.810Z,100441.63
2023-01-13T11:47:29.021Z,100404.59
2023-01-13T11:49:55.999Z,100431.19
2023-01-13T11:52:40.777Z,100444.19
2023-01-13T11:55:20.597Z,100457.91
2023-01-13T11:58:10.299Z,100453.63
2023-01-13T12:00:56.086Z,100415.78
2023-01-13T12:03:30.935Z,100450.16
2023-01-13T12:06:34.907Z,100461.44
2023-01-13T12:09:21.277Z,100470.00
2023-01-13T12:12:22.836Z,100476.84
2023-01-13T12:15:21.068Z,100456.16
2023-01-13T12:18:09.359Z,100457.97
2023-01-13T12:20:59.997Z,100470.81
2023-01-13T12:24:03.179Z,100462.25
2023-01-13T12:26:36.223Z,100464.81
2023-01-13T12:29:07.723Z,100442.31
2023-01-13T12:31:39.221Z,100479.44
2023-01-13T12:34:18.332Z,100484.56
2023-01-13T12:36:56.024Z,100490.63
2023-01-13T12:39:43.332Z,100486.41
2023-01-13T12:42:42.593Z,100477.72
2023-01-13T12:45:12.341Z,100497.41
2023-01-13T12:47:48.472Z,100497.44
2023-01-13T12:50:24.769Z,100495.59
2023-01-13T12:52:55.331Z,100483.59
2023-01-13T12:55:32.399Z,100505.84
2023-01-13T12:58:08.089Z,100511.09
2023-01-13T13:00:40.391Z,100529.16
2023-01-13T13:03:12.713Z,100538.59
2023-01-13T13:05:48.857Z,100529.94
2023-01-13T13:08:41.442Z,100538.63
2023-01-13T13:11:32.841Z,100540.31
2023-01-13T13:14:05.287Z,100541.16
2023-01-13T13:16:31.825Z,100554.06
2023-01-13T13:19:23.055Z,100564.31
2023-01-13T13:22:18.202Z,100558.28
2023-01-13T13:24:57.618Z,100565.13
2023-01-13T13:27:51.985Z,100573.75
2023-01-13T13:30:28.037Z,100548.69
2023-01-13T13:33:31.702Z,100585.72
2023-01-13T13:36:11.452Z,100565.94
2023-01-13T13:39:19.068Z,100579.78
2023-01-13T13:42:09.163Z,100585.84
2023-01-13T13:45:01.124Z,100581.47
2023-01-13T13:47:36.130Z,100584.06
2023-01-13T13:50:06.882Z,100601.28
2023-01-13T13:52:45.866Z,100594.25
2023-01-13T13:55:21.698Z,100638.09
2023-01-13T13:57:51.089Z,100601.91
2023-01-13T14:00:23.578Z,100644.00
2023-01-13T14:03:05.513Z,100642.31
2023-01-13T14:05:37.329Z,100631.91
2023-01-13T14:08:14.528Z,100646.53
2023-01-13T14:10:46.255Z,100657.75
2023-01-13T14:13:25.000Z,100654.38
2023-01-13T14:15:59.247Z,100669.75
2023-01-13T14:18:27.807Z,100656.81
2023-01-13T14:21:00.003Z,100671.47
2023-01-13T14:23:29.478Z,100664.59
2023-01-13T14:26:01.270Z,100601.53
2023-01-13T14:28:35.590Z,100681.66
2023-01-13T14:31:02.700Z,100667.81
2023-01-13T14:33:39.075Z,100715.06
2023-01-13T14:36:19.239Z,100661.84
2023-01-13T14:38:49.756Z,100692.75
2023-01-13T14:41:27.885Z,100684.13
2023-01-13T14:43:59.256Z,100719.28
2023-01-13T14:46:37.242Z,100676.16
2023-01-13T14:49:04.297Z,100706.28
2023-01-13T14:51:32.079Z,100711.25
2023-01-13T14:53:59.282Z,100686.22
2023-01-13T14:56:47.128Z,100728.00
2023-01-13T14:59:34.059Z,100736.28
2023-01-13T15:02:21.091Z,100736.91
2023-01-13T15:04:47.671Z,100743.91
2023-01-13T15:07:27.815Z,100744.53
2023-01-13T15:09:58.804Z,100723.00
2023-01-13T15:12:39.381Z,100761.91
2023-01-13T15:15:19.656Z,100754.22
2023-01-13T15:17:46.899Z,100774.06
2023-01-13T15:20:15.439Z,100761.88
2023-01-13T15:22:42.086Z,100750.75
2023-01-13T15:25:12.109Z,100743.75
2023-01-13T15:27:39.107Z,100778.41
2023-01-13T15:30:26.950Z,100793.88
2023-01-13T15:32:55.707Z,100803.19
2023-01-13T15:35:24.601Z,100809.22
2023-01-13T15:37:51.935Z,100792.84
2023-01-13T15:40:29.745Z,100835.91
2023-01-13T15:43:14.925Z,100812.78
2023-01-13T15:46:00.932Z,100820.44
2023-01-13T15:48:32.096Z,100849.56
2023-01-13T15:51:00.020Z,100841.19
2023-01-13T15:53:27.815Z,100805.78
2023-01-13T15:55:57.864Z,100835.00
2023-01-13T15:58:28.281Z,100829.75
2023-01-13T16:00:55.504Z,100844.28
2023-01-13T16:03:22.309Z,100840.19
2023-01-13T16:05:49.374Z,100866.81
2023-01-13T16:08:20.128Z,100861.75
2023-01-13T16:10:48.555Z,100869.44
2023-01-13T16:13:16.822Z,100878.78
2023-01-13T16:15:47.103Z,100877.16
2023-01-13T16:18:19.360Z,100875.44
2023-01-13T16:20:47.714Z,100885.72
2023-01-13T16:23:14.355Z,100900.41
2023-01-13T16:25:43.695Z,100872.75
2023-01-13T16:28:21.002Z,100899.31
2023-01-13T16:30:47.814Z,100899.34
2023-01-13T16:33:14.763Z,100881.94
2023-01-13T16:36:07.659Z,100902.50
2023-01-13T16:38:28.517Z,100906.00
2023-01-13T16:40:57.748Z,100886.97
2023-01-13T16:43:24.872Z,100891.44
2023-01-13T16:45:51.413Z,100901.72
2023-01-13T16:48:20.337Z,100925.97
2023-01-13T16:50:47.588Z,100910.22
2023-01-13T16:53:14.338Z,100935.25
2023-01-13T16:55:42.171Z,100934.31
2023-01-13T16:58:26.968Z,100919.41
2023-01-13T17:00:53.569Z,100927.81
2023-01-13T17:03:20.177Z,100939.09
2023-01-13T17:05:47.598Z,100947.75
2023-01-13T17:08:17.685Z,100960.66
2023-01-13T17:10:45.688Z,100918.22
2023-01-13T17:13:16.244Z,100952.78
2023-01-13T17:15:44.325Z,100959.81
2023-01-13T17:18:13.242Z,100943.47
2023-01-13T17:20:40.671Z,100959.69
2023-01-13T17:23:07.218Z,100982.69
2023-01-13T17:25:33.944Z,100981.19
2023-01-13T17:28:00.499Z,100981.88
2023-01-13T17:30:27.045Z,100973.88
2023-01-13T17:32:53.575Z,100980.63
2023-01-13T17:35:24.600Z,100981.53
2023-01-13T17:37:52.916Z,100982.19
2023-01-13T17:40:19.845Z,100916.38
2023-01-13T17:42:46.391Z,100980.50
2023-01-13T17:45:13.535Z,100985.53
2023-01-13T17:47:40.098Z,100999.22
2023-01-13T17:50:07.038Z,101008.00
2023-01-13T17:52:34.142Z,100982.88
2023-01-13T17:55:01.288Z,101011.38
2023-01-13T17:57:28.010Z,100995.91
2023-01-13T17:59:55.122Z,100997.59
2023-01-13T18:02:21.764Z,101004.59
2023-01-13T18:04:48.480Z,101001.84
2023-01-13T18:07:15.018Z,101000.84
2023-01-13T18:09:41.633Z,100984.13
2023-01-13T18:12:08.259Z,100976.22
2023-01-13T18:14:34.956Z,100994.75
2023-01-13T18:17:01.582Z,101010.47
2023-01-13T18:19:46.754Z,101006.16
2023-01-13T18:22:32.992Z,101025.22
2023-01-13T18:25:22.072Z,101029.34
2023-01-13T18:27:48.742Z,101024.28
2023-01-13T18:30:16.027Z,101035.53
2023-01-13T18:32:42.621Z,101044.91
2023-01-13T18:35:10.526Z,101024.88
2023-01-13T18:37:40.061Z,101055.06
2023-01-13T18:40:07.954Z,101065.53
2023-01-13T18:42:54.270Z,101033.38
2023-01-13T18:45:24.925Z,101075.91
2023-01-13T18:47:52.374Z,101056.03
2023-01-13T18:50:19.109Z,100994.50
2023-01-13T18:52:45.946Z,101049.22
2023-01-13T18:55:13.048Z,101083.94
2023-01-13T18:57:40.433Z,101095.88
2023-01-13T19:00:10.444Z,101074.56
2023-01-13T19:02:37.690Z,101057.03
2023-01-13T19:05:05.248Z,101085.41
2023-01-13T19:07:34.615Z,101099.00
2023-01-13T19:10:01.692Z,101096.28
2023-01-13T19:12:28.284Z,101079.13
2023-01-13T19:14:55.639Z,101101.13
2023-01-13T19:17:24.296Z,101103.06
2023-01-13T19:19:53.691Z,101079.84
2023-01-13T19:22:23.465Z,101108.38
2023-01-13T19:24:50.684Z,101116.06
2023-01-13T19:27:19.037Z,101121.34
2023-01-13T19:29:51.968Z,101112.66
2023-01-13T19:32:20.993Z,101105.63
2023-01-13T19:34:49.419Z,101105.53
2023-01-13T19:37:16.089Z,101133.06
2023-01-13T19:39:43.035Z,101128.78
2023-01-13T19:42:30.578Z,101138.34
2023-01-13T19:45:15.776Z,101138.06
2023-01-13T19:47:43.951Z,101151.28
2023-01-13T19:50:13.789Z,101162.28
2023-01-13T19:52:41.625Z,101142.34
2023-01-13T19:55:09.604Z,101151.59
2023-01-13T19:57:36.968Z,101136.81
2023-01-13T20:00:06.602Z,101153.13
2023-01-13T20:02:33.769Z,101164.13
2023-01-13T20:05:03.443Z,101167.47
2023-01-13T20:07:30.809Z,101167.28
2023-01-13T20:09:57.845Z,101152.47
2023-01-13T20:12:26.567Z,101159.16
2023-01-13T20:14:53.204Z,101174.81
2023-01-13T20:17:21.632Z,101158.19
2023-01-13T20:19:48.495Z,101154.56
2023-01-13T20:22:15.812Z,101134.03
2023-01-13T20:24:42.874Z,101176.47
2023-01-13T20:27:09.714Z,101181.59
2023-01-13T20:29:36.955Z,101146.63
2023-01-13T20:32:04.283Z,101166.47
2023-01-13T20:34:31.370Z,101190.69
2023-01-13T20:36:57.966Z,101203.81
2023-01-13T20:39:28.949Z,101208.63
2023-01-13T20:42:14.359Z,101225.72
2023-01-13T20:44:41.647Z,101229.31
2023-01-13T20:47:08.805Z,101220.91
2023-01-13T20:49:38.496Z,101209.56
2023-01-13T20:52:09.483Z,101230.34
2023-01-13T20:54:40.589Z,101236.25
2023-01-13T20:57:09.975Z,101254.28
2023-01-13T20:59:38.852Z,101250.28
2023-01-13T21:02:07.932Z,101248.56
2023-01-13T21:04:34.518Z,101244.13
2023-01-13T21:07:01.058Z,101256.97
2023-01-13T21:09:27.825Z,101264.72
2023-01-13T21:12:13.035Z,101221.44
2023-01-13T21:14:58.259Z,101258.09
2023-01-13T21:17:44.089Z,101255.63
2023-01-13T21:20:13.669Z,101260.13
2023-01-13T21:22:43.920Z,101221.94
2023-01-13T21:25:12.345Z,101265.22
2023-01-13T21:27:39.251Z,101262.50
2023-01-13T21:30:07.650Z,101261.75
2023-01-13T21:32:34.903Z,101280.78
2023-01-13T21:35:02.146Z,101279.94
2023-01-13T21:37:28.800Z,101278.16
2023-01-13T21:39:55.558Z,101286.94
2023-01-13T21:42:40.740Z,101263.41
2023-01-13T21:45:28.839Z,101258.75
2023-01-13T21:47:56.207Z,101289.22
2023-01-13T21:50:26.728Z,101289.34
2023-01-13T21:52:54.104Z,101281.56
2023-01-13T21:55:29.276Z,101295.53
2023-01-13T21:58:01.938Z,101284.22
2023-01-13T22:00:31.308Z,101284.09
2023-01-13T22:02:58.902Z,101292.66
2023-01-13T22:05:26.814Z,101308.34
2023-01-13T22:07:53.707Z,101306.59
2023-01-13T22:10:26.606Z,101309.97
2023-01-13T22:12:54.683Z,101323.81
2023-01-13T22:15:25.365Z,101302.72
2023-01-13T22:17:53.614Z,101322.72
2023-01-13T22:20:21.079Z,101334.84
2023-01-13T22:22:47.859Z,101337.41
2023-01-13T22:25:16.254Z,101333.97
2023-01-13T22:27:44.601Z,101337.34
2023-01-13T22:30:14.145Z,101341.00
2023-01-13T22:32:40.897Z,101310.56
2023-01-13T22:35:10.475Z,101344.34
2023-01-13T22:37:37.722Z,101331.34
2023-01-13T22:40:06.809Z,101348.75
2023-01-13T22:42:38.051Z,101339.88
2023-01-13T22:45:07.199Z,101332.72
2023-01-13T22:47:34.026Z,101337.41
2023-01-13T22:50:00.621Z,101348.56
2023-01-13T22:52:28.553Z,101357.78
2023-01-13T22:54:55.623Z,101356.16
2023-01-13T22:57:23.953Z,101349.22
2023-01-13T22:59:51.158Z,101360.56
2023-01-13T23:02:20.085Z,101337.81
2023-01-13T23:04:47.116Z,101347.34
2023-01-13T23:07:14.196Z,101327.41
2023-01-13T23:09:40.717Z,101323.94
2023-01-13T23:12:07.300Z,101331.75
2023-01-13T23:14:33.881Z,101367.31
2023-01-13T23:17:00.969Z,101285.81
2023-01-13T23:19:27.979Z,101364.75
2023-01-13T23:21:55.022Z,101355.94
2023-01-13T23:24:25.868Z,101351.69
2023-01-13T23:26:53.343Z,101354.22
2023-01-13T23:29:20.844Z,101352.75
2023-01-13T23:31:47.942Z,101344.31
2023-01-13T23:34:15.269Z,101321.47
2023-01-13T23:36:43.751Z,101321.16
2023-01-13T23:39:10.932Z,101340.16
2023-01-13T23:41:37.539Z,101355.78
2023-01-13T23:44:04.704Z,101334.91
2023-01-13T23:46:33.050Z,101337.81
2023-01-13T23:49:02.146Z,101330.72
2023-01-13T23:51:30.130Z,101307.22
2023-01-13T23:53:58.223Z,101353.09
2023-01-13T23:56:27.911Z,101342.59
2023-01-13T23:58:55.207Z,101340.88
